createdAt,value
2023-05-19T00:01:20.345Z,45.04
2023-05-19T00:16:25.419Z,45.15
2023-05-19T00:31:27.430Z,45.51
2023-05-19T00:46:29.208Z,45.09
2023-05-19T01:01:31.123Z,45.03
2023-05-19T01:16:43.004Z,44.97
2023-05-19T01:31:46.453Z,45.24
2023-05-19T01:46:50.922Z,45.35
2023-05-19T02:01:55.487Z,45.20
2023-05-19T02:16:58.366Z,45.04
2023-05-19T02:32:01.525Z,45.15
2023-05-19T02:47:03.475Z,45.36
2023-05-19T03:02:05.362Z,44.97
2023-05-19T03:17:07.260Z,45.30
2023-05-19T03:32:09.027Z,45.04
2023-05-19T03:47:10.771Z,45.05
2023-05-19T04:02:12.496Z,44.70
2023-05-19T04:17:14.438Z,44.93
2023-05-19T04:32:16.346Z,44.86
2023-05-19T04:47:18.101Z,44.61
2023-05-19T05:02:20.018Z,44.91
2023-05-19T05:17:22.131Z,44.72
2023-05-19T05:32:24.138Z,44.49
2023-05-19T05:47:26.198Z,44.50
2023-05-19T06:02:28.050Z,44.55
2023-05-19T06:17:29.878Z,44.50
2023-05-19T06:32:31.668Z,44.37
2023-05-19T06:47:33.508Z,44.27
2023-05-19T07:02:35.305Z,44.04
2023-05-19T07:17:37.100Z,43.92
2023-05-19T07:32:38.927Z,44.11
2023-05-19T07:47:40.735Z,44.26
2023-05-19T08:02:42.609Z,44.15
2023-05-19T08:17:44.416Z,44.73
2023-05-19T08:32:46.212Z,44.97
2023-05-19T08:47:51.207Z,44.79
2023-05-19T09:03:00.208Z,44.93
2023-05-19T09:18:10.986Z,44.68
2023-05-19T09:33:17.738Z,44.82
2023-05-19T09:48:19.540Z,45.43
2023-05-19T10:03:22.985Z,45.39
2023-05-19T10:18:26.429Z,45.33
2023-05-19T10:33:55.632Z,45.26
2023-05-19T10:48:57.522Z,45.25
2023-05-19T11:04:10.820Z,45.70
2023-05-19T11:19:27.457Z,45.01
2023-05-19T11:34:31.095Z,45.31
2023-05-19T11:49:33.163Z,45.34
2023-05-19T12:04:34.942Z,45.38
2023-05-19T12:19:36.930Z,45.08
2023-05-19T12:34:39.553Z,45.39
2023-05-19T12:50:00.942Z,45.31
2023-05-19T13:05:03.837Z,45.44
2023-05-19T13:20:06.340Z,45.08
2023-05-19T13:35:09.686Z,45.63
2023-05-19T13:50:11.503Z,45.81
2023-05-19T14:05:13.247Z,45.43
2023-05-19T14:20:15.118Z,46.01
2023-05-19T14:35:16.839Z,45.57
2023-05-19T14:50:18.640Z,45.43
2023-05-19T15:05:20.881Z,45.53
2023-05-19T15:20:22.621Z,45.62
2023-05-19T15:35:24.491Z,45.71
2023-05-19T15:50:26.385Z,45.72
2023-05-19T16:05:28.124Z,45.73
2023-05-19T16:20:29.861Z,45.76
2023-05-19T16:35:31.629Z,45.65
2023-05-19T16:50:33.470Z,45.64
2023-05-19T17:05:35.330Z,45.56
2023-05-19T17:20:37.073Z,45.48
2023-05-19T17:35:41.714Z,45.71
2023-05-19T17:50:43.420Z,46.17
2023-05-19T18:05:45.345Z,45.38
2023-05-19T18:20:47.211Z,45.75
2023-05-19T18:35:48.950Z,45.68
2023-05-19T18:50:50.697Z,45.90
2023-05-19T19:06:00.018Z,46.16
2023-05-19T19:21:02.084Z,45.41
2023-05-19T19:36:04.118Z,45.63
2023-05-19T19:51:05.811Z,45.30
2023-05-19T20:06:07.501Z,45.92
2023-05-19T20:21:09.241Z,45.49
2023-05-19T20:36:11.042Z,45.48
2023-05-19T20:51:12.768Z,45.50
2023-05-19T21:06:14.640Z,45.13
2023-05-19T21:21:16.428Z,45.56
2023-05-19T21:36:18.185Z,45.62
2023-05-19T21:51:19.985Z,45.58
2023-05-19T22:06:21.715Z,45.42
2023-05-19T22:21:23.520Z,45.63
2023-05-19T22:36:25.244Z,45.84
2023-05-19T22:51:27.028Z,45.57
2023-05-19T23:06:28.782Z,45.79
2023-05-19T23:21:31.010Z,45.60
2023-05-19T23:36:32.736Z,45.50
2023-05-19T23:51:34.482Z,45.59
